Time;durP1;ratioP1;P1;durP2;ratioP2;P2;SDS_P1;SDS_P2;PMS_P1;PMS_P2;Temp;Humidity;BMP_temperature;BMP_pressure;BME280_temperature;BME280_humidity;BME280_pressure;Samples;Min_cycle;Max_cycle;Signal;HPM_P1;HPM_P2
2022/05/22 00:01:37;;;;;;;6.97;1.95;;;22.40;79.40;;;;;;5090115;28;20033;-67
2022/05/22 00:04:03;;;;;;;6.65;1.92;;;22.20;79.20;;;;;;5071978;28;20517;-67
2022/05/22 00:06:29;;;;;;;6.65;2.33;;;22.30;79.20;;;;;;5071859;28;20132;-66
2022/05/22 00:08:55;;;;;;;4.55;1.80;;;22.10;76.30;;;;;;5069789;28;20040;-68
2022/05/22 00:11:22;;;;;;;8.85;2.17;;;22.20;76.30;;;;;;5072667;28;20047;-67
2022/05/22 00:13:48;;;;;;;6.00;2.00;;;22.20;76.00;;;;;;5072693;28;20074;-67
2022/05/22 00:18:58;;;;;;;4.55;1.80;;;22.30;75.70;;;;;;5070525;28;20083;-67
2022/05/22 00:21:25;;;;;;;6.90;1.88;;;;;;;;;;5074143;28;20068;-67
2022/05/22 00:23:50;;;;;;;4.50;1.77;;;22.00;74.20;;;;;;5071371;28;20517;-67
2022/05/22 00:26:16;;;;;;;5.53;2.10;;;22.00;79.10;;;;;;5073679;28;20052;-67
2022/05/22 00:28:42;;;;;;;5.70;2.45;;;22.20;79.30;;;;;;5050854;28;20043;-67
2022/05/22 00:31:08;;;;;;;8.00;2.38;;;22.30;79.40;;;;;;5055127;28;20045;-67
2022/05/22 00:33:34;;;;;;;6.78;2.22;;;22.30;75.90;;;;;;5059613;28;20049;-66
2022/05/22 00:36:01;;;;;;;5.90;2.00;;;21.90;78.90;;;;;;5054381;28;20052;-65
2022/05/22 00:38:27;;;;;;;5.28;2.38;;;22.30;79.30;;;;;;5051875;28;20060;-67
2022/05/22 00:40:53;;;;;;;7.18;2.00;;;21.90;79.00;;;;;;5069948;28;20150;-66
2022/05/22 00:43:30;;;;;;;8.15;2.47;;;22.10;79.10;;;;;;5071084;28;20045;-66
2022/05/22 00:45:56;;;;;;;7.63;2.60;;;22.10;75.20;;;;;;5053613;28;20123;-67
2022/05/22 00:48:22;;;;;;;6.88;2.28;;;22.00;79.30;;;;;;5070838;28;20045;-67
2022/05/22 00:50:48;;;;;;;5.55;2.45;;;22.10;76.40;;;;;;5067785;28;20379;-66
2022/05/22 00:53:14;;;;;;;7.38;2.50;;;22.20;79.40;;;;;;5088787;28;20090;-66
2022/05/22 00:55:40;;;;;;;7.70;2.20;;;22.20;76.20;;;;;;5082434;28;20041;-66
2022/05/22 00:58:10;;;;;;;5.10;2.20;;;22.10;79.40;;;;;;5036277;28;20048;-67
2022/05/22 01:00:36;;;;;;;7.88;2.70;;;22.10;79.20;;;;;;5039525;28;20509;-67
2022/05/22 01:05:52;;;;;;;6.78;2.72;;;;;;;;;;5039023;28;20051;-65
2022/05/22 01:08:18;;;;;;;8.63;2.90;;;22.00;79.50;;;;;;5069690;28;20430;-67
2022/05/22 01:10:48;;;;;;;5.22;2.05;;;22.00;79.60;;;;;;5087605;28;20086;-67
2022/05/22 01:13:16;;;;;;;4.43;2.20;;;22.20;79.50;;;;;;5062336;28;20493;-67
2022/05/22 01:15:42;;;;;;;7.28;2.28;;;22.10;76.50;;;;;;5077805;28;20044;-66
2022/05/22 01:18:08;;;;;;;5.90;2.30;;;21.90;79.20;;;;;;5103421;28;20544;-67
2022/05/22 01:20:33;;;;;;;6.93;2.55;;;21.90;76.20;;;;;;5053395;28;20049;-67
2022/05/22 01:22:59;;;;;;;6.63;2.85;;;21.80;79.10;;;;;;5070738;28;20047;-66
2022/05/22 01:25:25;;;;;;;4.40;2.08;;;21.70;79.00;;;;;;5065826;28;20052;-66
2022/05/22 01:27:51;;;;;;;9.00;2.70;;;22.00;76.30;;;;;;5071855;28;20044;-67
2022/05/22 01:30:24;;;;;;;5.57;2.40;;;21.90;76.00;;;;;;5088587;28;20062;-62
2022/05/22 01:32:50;;;;;;;7.43;2.67;;;22.00;79.40;;;;;;5059866;28;20067;-67
2022/05/22 01:35:18;;;;;;;6.50;2.45;;;21.90;79.50;;;;;;5067037;28;20052;-67
2022/05/22 01:37:44;;;;;;;7.07;2.35;;;21.90;79.40;;;;;;5062298;28;20119;-67
2022/05/22 01:40:10;;;;;;;9.88;3.35;;;21.90;79.50;;;;;;5067229;28;20056;-66
2022/05/22 01:42:36;;;;;;;7.85;2.60;;;22.00;76.40;;;;;;5072949;28;20041;-67
2022/05/22 01:45:03;;;;;;;7.40;2.65;;;22.00;79.30;;;;;;5068703;28;20040;-66
2022/05/22 01:47:32;;;;;;;7.18;3.08;;;22.00;76.20;;;;;;5063536;28;20052;-67
2022/05/22 01:49:58;;;;;;;9.10;3.75;;;21.80;79.10;;;;;;5052729;28;20491;-63
2022/05/22 01:52:24;;;;;;;5.80;2.85;;;21.90;76.40;;;;;;5103834;28;20055;-67
2022/05/22 01:54:49;;;;;;;8.98;2.50;;;21.80;76.30;;;;;;5071586;28;20079;-66
2022/05/22 01:57:15;;;;;;;6.40;2.70;;;22.00;79.30;;;;;;5066958;28;20045;-66
2022/05/22 01:59:41;;;;;;;6.93;3.20;;;21.90;76.30;;;;;;5071508;28;20427;-67
2022/05/22 02:02:07;;;;;;;4.78;2.67;;;22.00;79.30;;;;;;5088639;28;20045;-67
2022/05/22 02:04:33;;;;;;;6.63;3.00;;;22.10;79.70;;;;;;5070039;28;20051;-67
2022/05/22 02:09:43;;;;;;;6.60;2.83;;;21.90;75.50;;;;;;5071275;28;20049;-67
2022/05/22 02:12:09;;;;;;;7.82;2.60;;;21.70;79.30;;;;;;5072959;28;20059;-67
2022/05/22 02:14:34;;;;;;;6.43;3.15;;;21.80;79.60;;;;;;5071470;28;20055;-66
2022/05/22 02:17:00;;;;;;;7.15;2.75;;;21.70;79.10;;;;;;5050525;28;20110;-67
2022/05/22 02:19:26;;;;;;;9.07;2.92;;;21.80;79.20;;;;;;5065707;28;20126;-67
2022/05/22 02:21:52;;;;;;;7.22;2.88;;;21.70;76.30;;;;;;5076165;28;20115;-67
2022/05/22 02:24:17;;;;;;;8.52;3.13;;;21.70;75.80;;;;;;5074661;28;20041;-67
2022/05/22 02:26:43;;;;;;;6.20;2.70;;;22.00;76.50;;;;;;5076104;28;20072;-67
2022/05/22 02:29:10;;;;;;;8.70;2.92;;;21.60;79.00;;;;;;5051310;28;20490;-66
2022/05/22 02:31:36;;;;;;;6.50;2.75;;;22.00;79.30;;;;;;5074747;28;20516;-67
2022/05/22 02:34:01;;;;;;;7.68;3.28;;;21.70;79.10;;;;;;5069719;28;20064;-65
2022/05/22 02:36:27;;;;;;;6.15;2.75;;;21.60;79.30;;;;;;5090643;28;20083;-67
2022/05/22 02:38:53;;;;;;;7.32;2.90;;;21.80;76.00;;;;;;5078790;28;20485;-67
2022/05/22 02:41:20;;;;;;;5.80;3.47;;;21.50;76.20;;;;;;5073533;28;20394;-67
2022/05/22 02:43:46;;;;;;;7.70;2.80;;;21.60;79.30;;;;;;5074664;28;20121;-67
2022/05/22 02:46:14;;;;;;;4.88;2.58;;;21.90;79.50;;;;;;5098692;28;20045;-66
2022/05/22 02:48:39;;;;;;;9.40;2.47;;;21.80;79.30;;;;;;5087224;28;20182;-65
2022/05/22 02:51:05;;;;;;;5.03;2.08;;;21.50;79.10;;;;;;5072075;28;20541;-67
2022/05/22 02:53:32;;;;;;;6.00;2.30;;;23.80;77.40;;;;;;5074066;28;20402;-66
2022/05/22 02:56:09;;;;;;;5.88;2.05;;;21.80;76.00;;;;;;5074305;28;20051;-66
2022/05/22 02:58:35;;;;;;;6.00;2.53;;;21.70;76.80;;;;;;5058753;28;20045;-66
2022/05/22 03:01:00;;;;;;;5.43;2.10;;;21.70;79.20;;;;;;5068401;28;20506;-67
2022/05/22 03:03:27;;;;;;;4.28;2.20;;;;;;;;;;5073149;28;20052;-67
2022/05/22 03:08:36;;;;;;;5.82;2.90;;;21.80;79.30;;;;;;5070507;28;20045;-66
2022/05/22 03:11:06;;;;;;;4.32;2.08;;;21.50;76.20;;;;;;5070626;28;20106;-67
2022/05/22 03:13:32;;;;;;;5.10;2.38;;;21.70;79.30;;;;;;5073514;28;20098;-67
2022/05/22 03:15:57;;;;;;;5.90;2.25;;;21.50;79.00;;;;;;5073623;28;20075;-67
2022/05/22 03:18:23;;;;;;;4.50;2.30;;;21.60;76.20;;;;;;5074249;28;20037;-67
2022/05/22 03:20:49;;;;;;;5.00;2.33;;;21.60;79.20;;;;;;5103828;28;20529;-66
2022/05/22 03:23:15;;;;;;;4.90;2.45;;;21.60;79.00;;;;;;5068443;28;20407;-67
2022/05/22 03:25:41;;;;;;;7.28;2.53;;;21.50;79.30;;;;;;5080232;28;20067;-66
2022/05/22 03:28:07;;;;;;;5.40;2.30;;;21.50;76.10;;;;;;5107596;28;20486;-67
2022/05/22 03:30:32;;;;;;;5.47;2.45;;;21.50;76.00;;;;;;5087123;28;20052;-67
2022/05/22 03:32:58;;;;;;;7.63;3.05;;;21.60;79.00;;;;;;5069954;28;20057;-67
2022/05/22 03:35:24;;;;;;;5.47;2.40;;;;;;;;;;5063361;28;20041;-66
2022/05/22 03:37:51;;;;;;;6.80;2.85;;;;;;;;;;5074336;28;20394;-67
2022/05/22 03:40:17;;;;;;;6.03;2.60;;;21.50;74.30;;;;;;5066376;28;20478;-67
2022/05/22 03:42:42;;;;;;;8.55;3.13;;;21.50;79.10;;;;;;5068952;28;20059;-67
2022/05/22 03:45:09;;;;;;;5.50;2.38;;;21.50;79.40;;;;;;5071090;28;20050;-67
2022/05/22 03:47:35;;;;;;;6.53;2.67;;;;;;;;;;5090438;28;20044;-67
2022/05/22 03:50:04;;;;;;;4.63;2.35;;;21.60;79.10;;;;;;5072776;28;20041;-66
2022/05/22 03:52:39;;;;;;;5.88;2.28;;;21.60;79.00;;;;;;5055775;28;20101;-66
2022/05/22 03:55:07;;;;;;;4.43;2.03;;;21.60;79.00;;;;;;5054864;28;20100;-67
2022/05/22 03:57:33;;;;;;;4.32;2.08;;;21.80;76.20;;;;;;5053482;28;20383;-67
2022/05/22 04:00:00;;;;;;;4.28;1.60;;;21.60;78.90;;;;;;5057606;28;20409;-67
2022/05/22 04:02:26;;;;;;;5.13;1.83;;;21.60;76.20;;;;;;5066316;28;20049;-67
2022/05/22 04:04:52;;;;;;;3.88;1.67;;;21.40;78.60;;;;;;5065998;28;20047;-66
2022/05/22 04:07:18;;;;;;;5.20;1.60;;;21.50;78.80;;;;;;5056257;28;20048;-67
2022/05/22 04:09:44;;;;;;;3.50;1.60;;;21.40;75.40;;;;;;5065133;28;20394;-67
2022/05/22 04:12:11;;;;;;;2.95;1.35;;;21.50;76.80;;;;;;5071516;28;20047;-65
2022/05/22 04:14:37;;;;;;;3.30;1.50;;;21.50;79.10;;;;;;5073877;28;20048;-67
2022/05/22 04:17:03;;;;;;;4.07;1.65;;;21.60;78.80;;;;;;5066284;28;20071;-67
2022/05/22 04:19:31;;;;;;;2.90;1.40;;;21.70;78.90;;;;;;5070558;28;20105;-66
2022/05/22 04:21:57;;;;;;;4.97;1.42;;;21.50;78.70;;;;;;5071594;28;20470;-66
2022/05/22 04:27:07;;;;;;;3.60;1.60;;;21.60;78.80;;;;;;5071489;28;20105;-63
2022/05/22 04:29:34;;;;;;;4.32;1.70;;;21.30;78.70;;;;;;5083245;28;20036;-66
2022/05/22 04:32:00;;;;;;;3.33;1.73;;;21.30;78.60;;;;;;5072085;28;20036;-67
2022/05/22 04:34:27;;;;;;;4.25;1.70;;;;;;;;;;5069052;28;20057;-66
2022/05/22 04:36:53;;;;;;;3.80;2.00;;;21.60;78.60;;;;;;5065999;28;20135;-66
2022/05/22 04:39:19;;;;;;;4.75;2.10;;;21.50;78.50;;;;;;5062203;28;20119;-66
2022/05/22 04:41:44;;;;;;;4.88;2.05;;;21.60;78.60;;;;;;5066985;28;20041;-67
2022/05/22 04:44:10;;;;;;;5.95;1.88;;;21.40;78.60;;;;;;5067781;28;20040;-67
2022/05/22 04:46:36;;;;;;;5.60;2.22;;;21.60;78.90;;;;;;5066232;28;20378;-65
2022/05/22 04:49:02;;;;;;;5.00;2.33;;;21.80;75.70;;;;;;5061868;28;20571;-66
2022/05/22 04:51:28;;;;;;;4.32;1.77;;;21.70;78.50;;;;;;5056552;28;20040;-66
2022/05/22 04:53:54;;;;;;;4.70;1.83;;;21.60;78.40;;;;;;5070954;28;20044;-66
2022/05/22 04:56:20;;;;;;;5.10;2.13;;;21.70;75.20;;;;;;5066717;28;20086;-66
2022/05/22 04:58:47;;;;;;;6.75;2.25;;;21.80;78.50;;;;;;5064127;28;20068;-67
2022/05/22 05:01:13;;;;;;;4.65;1.95;;;21.90;78.50;;;;;;5070480;28;20044;-66
2022/05/22 05:03:39;;;;;;;4.78;1.80;;;;;;;;;;5069627;28;20086;-65
2022/05/22 05:06:05;;;;;;;4.80;2.03;;;21.90;73.40;;;;;;5065489;28;20441;-66
2022/05/22 05:08:31;;;;;;;4.70;2.03;;;22.50;78.10;;;;;;5063775;28;20132;-67
2022/05/22 05:10:57;;;;;;;6.28;2.10;;;22.80;73.80;;;;;;5068831;28;20398;-66
2022/05/22 05:13:23;;;;;;;4.97;1.98;;;22.50;75.00;;;;;;5061211;28;20398;-67
2022/05/22 05:16:04;;;;;;;4.80;1.88;;;23.00;77.30;;;;;;5057616;28;20044;-67
2022/05/22 05:18:30;;;;;;;5.80;2.17;;;23.10;76.90;;;;;;5065257;28;20045;-66
2022/05/22 05:20:58;;;;;;;4.82;1.92;;;23.00;76.50;;;;;;5068263;28;20595;-67
2022/05/22 05:23:24;;;;;;;5.47;2.00;;;23.20;74.20;;;;;;5078679;28;20368;-66
2022/05/22 05:25:50;;;;;;;6.75;2.15;;;23.50;73.80;;;;;;5063929;28;20131;-67
2022/05/22 05:28:16;;;;;;;5.28;1.90;;;23.70;73.20;;;;;;5066653;28;20036;-67
2022/05/22 05:30:42;;;;;;;5.32;2.00;;;23.70;73.40;;;;;;5066891;28;20062;-67
2022/05/22 05:33:08;;;;;;;5.20;2.00;;;23.60;73.20;;;;;;5068663;28;20509;-67
2022/05/22 05:35:33;;;;;;;5.55;2.97;;;23.80;72.60;;;;;;5066508;28;20045;-65
2022/05/22 05:37:59;;;;;;;4.63;1.98;;;23.70;72.70;;;;;;5068511;28;20048;-67
2022/05/22 05:40:25;;;;;;;5.88;2.50;;;23.90;72.60;;;;;;5063818;28;20052;-63
2022/05/22 05:42:51;;;;;;;5.13;2.08;;;24.00;72.60;;;;;;5098208;28;20047;-67
2022/05/22 05:45:20;;;;;;;5.70;2.50;;;24.30;72.60;;;;;;5068005;28;20049;-66
2022/05/22 05:47:47;;;;;;;7.07;2.55;;;24.40;71.60;;;;;;5065628;28;20394;-67
2022/05/22 05:50:14;;;;;;;6.72;2.03;;;24.30;72.60;;;;;;5066666;28;20048;-68
2022/05/22 05:52:39;;;;;;;6.68;2.17;;;24.60;72.70;;;;;;5064174;28;20052;-63
2022/05/22 05:55:06;;;;;;;9.48;2.85;;;24.50;71.90;;;;;;5065194;28;20098;-68
2022/05/22 05:57:31;;;;;;;5.32;2.10;;;24.60;71.70;;;;;;5068079;28;20044;-63
2022/05/22 05:59:57;;;;;;;8.13;2.55;;;24.60;71.80;;;;;;5097123;28;20401;-63
2022/05/22 06:02:23;;;;;;;8.13;2.28;;;24.90;72.00;;;;;;5070886;28;20470;-66
2022/05/22 06:04:49;;;;;;;6.60;2.50;;;25.10;71.90;;;;;;5070177;28;20276;-66
2022/05/22 06:07:14;;;;;;;7.40;2.78;;;24.70;71.60;;;;;;5069974;28;20045;-67
2022/05/22 06:09:40;;;;;;;6.53;2.20;;;25.30;71.80;;;;;;5071612;28;20044;-67
2022/05/22 06:12:06;;;;;;;7.95;2.40;;;25.10;71.70;;;;;;5084717;28;20482;-66
2022/05/22 06:14:32;;;;;;;5.53;2.58;;;25.00;71.30;;;;;;5069138;28;20405;-66
2022/05/22 06:16:58;;;;;;;5.43;2.35;;;25.20;71.60;;;;;;5071351;28;20044;-62
2022/05/22 06:22:09;;;;;;;7.65;2.78;;;25.40;70.60;;;;;;5070891;28;20044;-65
2022/05/22 06:24:36;;;;;;;7.97;2.25;;;25.40;71.50;;;;;;5065863;28;20441;-67
2022/05/22 06:27:02;;;;;;;6.70;2.42;;;25.30;72.10;;;;;;5051120;28;20490;-63
2022/05/22 06:29:28;;;;;;;7.50;2.30;;;25.30;71.10;;;;;;5069187;28;20434;-64
2022/05/22 06:31:54;;;;;;;5.47;2.03;;;25.30;71.10;;;;;;5056170;28;20116;-63
2022/05/22 06:34:22;;;;;;;7.03;2.10;;;25.50;70.90;;;;;;5064839;28;20084;-66
2022/05/22 06:36:49;;;;;;;5.45;2.22;;;25.40;71.20;;;;;;5061208;28;20045;-63
2022/05/22 06:42:00;;;;;;;7.88;2.50;;;25.70;70.60;;;;;;5071865;28;20048;-63
2022/05/22 06:44:25;;;;;;;7.82;2.63;;;25.50;70.60;;;;;;5080854;28;20052;-63
2022/05/22 06:46:51;;;;;;;5.32;1.88;;;25.90;71.20;;;;;;5067091;28;20037;-62
2022/05/22 06:49:17;;;;;;;10.55;2.40;;;25.70;70.40;;;;;;5069899;28;20048;-67
2022/05/22 06:51:43;;;;;;;6.35;2.35;;;26.00;71.10;;;;;;5070180;28;20032;-67
2022/05/22 06:54:09;;;;;;;4.93;1.90;;;25.70;70.60;;;;;;5068310;28;20832;-65
2022/05/22 06:56:34;;;;;;;8.32;2.33;;;25.50;70.60;;;;;;5069877;28;20044;-62
2022/05/22 06:59:00;;;;;;;7.80;2.13;;;25.80;70.40;;;;;;5069335;28;20052;-66
2022/05/22 07:01:26;;;;;;;7.65;2.22;;;25.60;70.40;;;;;;5070769;28;20033;-67
2022/05/22 07:03:52;;;;;;;6.50;2.40;;;25.80;70.70;;;;;;5043953;28;20428;-67
2022/05/22 07:06:18;;;;;;;6.57;2.38;;;25.90;70.60;;;;;;5049108;28;20097;-62
2022/05/22 07:08:44;;;;;;;7.18;2.63;;;25.70;70.30;;;;;;5069832;28;20037;-62
2022/05/22 07:13:54;;;;;;;8.70;2.33;;;26.00;69.60;;;;;;5071497;28;20056;-67
2022/05/22 07:16:19;;;;;;;8.70;2.35;;;26.00;70.50;;;;;;5067443;28;20406;-65
2022/05/22 07:18:45;;;;;;;6.28;2.28;;;26.20;70.30;;;;;;5071117;28;20119;-63
2022/05/22 07:21:11;;;;;;;7.55;2.63;;;26.10;70.50;;;;;;5070735;28;20079;-67
2022/05/22 07:23:37;;;;;;;7.95;2.78;;;26.20;70.20;;;;;;5072526;28;20044;-68
2022/05/22 07:26:04;;;;;;;9.23;2.45;;;26.00;70.30;;;;;;5065367;28;20048;-67
2022/05/22 07:28:31;;;;;;;9.43;2.63;;;26.00;70.00;;;;;;5068274;28;20045;-68
2022/05/22 07:30:57;;;;;;;6.25;2.25;;;26.30;70.50;;;;;;5067267;28;20608;-67
2022/05/22 07:33:23;;;;;;;9.45;2.72;;;26.20;70.10;;;;;;5069614;28;20071;-68
2022/05/22 07:36:07;;;;;;;9.90;2.63;;;26.30;70.00;;;;;;5044738;28;20052;-68
2022/05/22 07:38:32;;;;;;;6.75;2.42;;;26.40;70.20;;;;;;5068455;28;20181;-67
2022/05/22 07:40:58;;;;;;;6.57;2.50;;;26.40;70.40;;;;;;5067412;28;20127;-68
2022/05/22 07:43:24;;;;;;;6.68;2.13;;;26.20;70.00;;;;;;5071836;28;20575;-67
2022/05/22 07:45:50;;;;;;;8.35;2.28;;;26.50;70.50;;;;;;5034902;28;20044;-68
2022/05/22 07:48:16;;;;;;;5.43;2.15;;;26.40;70.20;;;;;;5068670;28;20072;-68
2022/05/22 07:50:42;;;;;;;6.43;2.60;;;26.50;70.30;;;;;;5071652;28;20052;-67
2022/05/22 07:53:08;;;;;;;10.10;2.60;;;26.80;70.50;;;;;;5084582;28;20043;-63
2022/05/22 07:55:34;;;;;;;9.90;3.17;;;26.70;70.40;;;;;;5050025;28;20410;-62
2022/05/22 07:57:59;;;;;;;7.53;2.65;;;26.60;70.40;;;;;;5068284;28;20486;-63
2022/05/22 08:00:25;;;;;;;6.53;2.45;;;26.50;70.10;;;;;;5050006;28;20051;-67
2022/05/22 08:02:51;;;;;;;6.90;2.78;;;26.50;70.30;;;;;;5069793;28;20067;-63
2022/05/22 08:05:18;;;;;;;11.25;3.10;;;26.70;70.40;;;;;;5063060;28;20052;-67
2022/05/22 08:07:44;;;;;;;8.85;2.85;;;26.60;70.70;;;;;;5086359;28;20040;-68
2022/05/22 08:10:10;;;;;;;6.97;2.35;;;26.60;70.20;;;;;;5067761;28;20513;-67
2022/05/22 08:12:44;;;;;;;7.90;2.58;;;26.60;70.80;;;;;;5065830;28;20120;-65
2022/05/22 08:15:12;;;;;;;7.50;2.63;;;26.60;69.60;;;;;;5084032;28;20037;-63
2022/05/22 08:17:37;;;;;;;9.20;2.83;;;26.50;71.20;;;;;;5067135;28;20044;-65
2022/05/22 08:20:07;;;;;;;10.18;2.92;;;26.30;70.60;;;;;;5067233;28;20041;-62
2022/05/22 08:22:33;;;;;;;9.32;2.65;;;26.40;70.30;;;;;;5071155;28;20040;-67
2022/05/22 08:25:00;;;;;;;8.25;2.70;;;26.60;70.60;;;;;;5070548;28;20119;-63
2022/05/22 08:27:27;;;;;;;6.70;2.45;;;26.40;70.80;;;;;;5053231;28;20093;-67
2022/05/22 08:29:54;;;;;;;8.32;2.35;;;26.70;70.70;;;;;;5069946;28;20436;-67
2022/05/22 08:32:19;;;;;;;6.95;2.22;;;26.80;71.00;;;;;;5070935;28;20032;-67
2022/05/22 08:34:45;;;;;;;9.40;2.60;;;26.70;70.40;;;;;;5084971;28;20088;-67
2022/05/22 08:37:11;;;;;;;7.70;3.10;;;26.40;70.00;;;;;;5070236;28;20044;-65
2022/05/22 08:39:37;;;;;;;9.95;2.85;;;26.70;70.30;;;;;;5067170;28;20478;-63
2022/05/22 08:42:08;;;;;;;7.55;3.10;;;26.60;70.60;;;;;;5068464;28;20044;-66
2022/05/22 08:44:34;;;;;;;7.68;2.63;;;26.80;71.20;;;;;;5052171;28;20130;-65
2022/05/22 08:47:21;;;;;;;6.82;2.67;;;26.30;70.80;;;;;;5068031;28;20040;-66
2022/05/22 08:49:48;;;;;;;8.80;2.80;;;26.60;71.60;;;;;;5085278;28;20041;-67
2022/05/22 08:52:34;;;;;;;6.53;2.83;;;26.60;71.00;;;;;;5069647;28;20056;-67
2022/05/22 08:55:08;;;;;;;6.63;2.47;;;26.60;69.70;;;;;;5070253;28;20489;-63
2022/05/22 09:00:43;;;;;;;9.43;3.00;;;26.20;69.80;;;;;;5067838;28;20091;-67
2022/05/22 09:03:25;;;;;;;7.88;2.38;;;26.30;71.20;;;;;;5070288;28;20133;-63
2022/05/22 09:05:54;;;;;;;8.73;2.72;;;26.50;70.20;;;;;;5084843;28;20041;-64
2022/05/22 09:08:23;;;;;;;8.45;3.22;;;26.30;71.40;;;;;;5066599;28;20482;-63
2022/05/22 09:11:13;;;;;;;7.55;2.65;;;26.30;71.20;;;;;;5086345;28;20505;-64
2022/05/22 09:14:07;;;;;;;9.10;2.97;;;26.50;70.20;;;;;;5069862;28;20084;-64
2022/05/22 09:16:53;;;;;;;7.65;2.65;;;26.70;70.50;;;;;;5053772;28;20110;-62
2022/05/22 09:19:36;;;;;;;9.30;2.65;;;26.50;71.90;;;;;;5057083;28;20119;-62
2022/05/22 09:22:08;;;;;;;8.75;2.70;;;26.60;70.40;;;;;;5065136;28;20056;-64
2022/05/22 09:24:51;;;;;;;8.40;2.20;;;26.50;70.30;;;;;;5070185;28;20048;-64
2022/05/22 09:27:20;;;;;;;8.45;2.55;;;26.50;70.50;;;;;;5094378;28;20505;-67
2022/05/22 09:29:55;;;;;;;6.15;2.50;;;26.50;71.90;;;;;;5098889;28;20048;-67
2022/05/22 09:32:57;;;;;;;6.70;2.40;;;26.30;70.50;;;;;;5067723;28;20077;-64
2022/05/22 09:35:57;;;;;;;7.95;2.60;;;26.30;70.90;;;;;;5090712;28;20098;-65
2022/05/22 09:38:31;;;;;;;13.93;2.58;;;26.50;70.90;;;;;;5106201;28;20063;-69
2022/05/22 09:41:23;;;;;;;8.65;2.90;;;26.40;70.50;;;;;;5075935;28;20074;-66
2022/05/22 09:44:10;;;;;;;9.23;2.72;;;26.30;72.10;;;;;;5106771;28;20044;-69
2022/05/22 09:46:55;;;;;;;12.20;3.25;;;26.00;69.90;;;;;;5075572;28;20045;-70
2022/05/22 09:49:43;;;;;;;12.40;2.72;;;26.20;69.60;;;;;;5053029;28;20060;-68
2022/05/22 09:52:23;;;;;;;7.95;2.35;;;26.40;69.90;;;;;;5085069;28;20485;-62
2022/05/22 09:54:49;;;;;;;8.38;3.17;;;26.20;69.90;;;;;;5057346;28;20101;-63
2022/05/22 09:57:39;;;;;;;9.30;2.50;;;25.90;70.90;;;;;;5076200;28;20507;-63
2022/05/22 10:00:10;;;;;;;7.93;2.67;;;25.90;69.60;;;;;;5075921;28;20424;-69
2022/05/22 10:03:01;;;;;;;11.23;2.63;;;26.10;69.30;;;;;;5083764;28;20438;-68
2022/05/22 10:05:37;;;;;;;10.07;2.53;;;25.90;71.00;;;;;;5073243;28;20076;-66
2022/05/22 10:08:16;;;;;;;9.75;3.10;;;26.00;69.50;;;;;;5069827;28;20044;-62
2022/05/22 10:11:01;;;;;;;11.80;3.05;;;25.80;69.60;;;;;;5072314;28;20123;-65
2022/05/22 10:13:33;;;;;;;9.88;2.55;;;26.00;69.60;;;;;;5068594;28;20040;-64
2022/05/22 10:16:18;;;;;;;9.48;2.90;;;25.80;70.90;;;;;;5070107;28;20044;-66
2022/05/22 10:19:08;;;;;;;8.68;2.65;;;25.90;69.60;;;;;;5094458;28;20097;-62
2022/05/22 10:21:40;;;;;;;9.45;2.42;;;25.80;69.70;;;;;;5070909;28;20147;-63
2022/05/22 10:24:42;;;;;;;8.10;2.45;;;25.70;69.60;;;;;;5070109;28;20071;-70
2022/05/22 10:27:27;;;;;;;6.57;2.10;;;25.10;69.80;;;;;;5088542;28;20050;-72
2022/05/22 10:30:13;;;;;;;9.13;2.20;;;25.70;69.60;;;;;;5070781;28;20055;-72
2022/05/22 10:32:43;;;;;;;10.10;2.53;;;25.90;71.20;;;;;;5072335;28;20055;-71
2022/05/22 10:35:14;;;;;;;7.88;2.35;;;25.80;71.00;;;;;;5053764;28;20052;-64
2022/05/22 10:37:52;;;;;;;7.72;2.38;;;25.90;70.80;;;;;;5097395;28;20067;-70
2022/05/22 10:40:23;;;;;;;8.25;2.10;;;26.00;69.80;;;;;;5071316;28;20048;-71
2022/05/22 10:42:53;;;;;;;8.25;2.40;;;25.70;71.00;;;;;;5072058;28;20107;-71
2022/05/22 10:45:35;;;;;;;6.15;2.20;;;26.00;71.70;;;;;;5070121;28;20059;-63
2022/05/22 10:48:08;;;;;;;7.35;2.60;;;25.90;69.70;;;;;;5073420;28;20107;-69
2022/05/22 10:50:34;;;;;;;7.20;2.10;;;26.00;71.80;;;;;;5102197;28;20056;-68
2022/05/22 10:53:00;;;;;;;6.53;2.00;;;25.80;70.80;;;;;;5072382;28;20094;-72
2022/05/22 10:55:44;;;;;;;8.88;2.53;;;26.00;71.00;;;;;;5070794;28;20040;-65
2022/05/22 10:58:26;;;;;;;6.63;2.13;;;25.80;71.40;;;;;;5069727;28;20048;-63
2022/05/22 11:00:57;;;;;;;7.85;2.10;;;25.80;69.70;;;;;;5069777;28;20041;-73
2022/05/22 11:03:31;;;;;;;5.53;2.28;;;25.80;71.50;;;;;;5064782;28;20059;-62
2022/05/22 11:05:57;;;;;;;8.57;2.47;;;26.00;69.70;;;;;;5054139;28;20052;-62
2022/05/22 11:08:43;;;;;;;6.07;2.35;;;25.80;70.70;;;;;;5054301;28;20067;-65
2022/05/22 11:11:19;;;;;;;7.55;2.17;;;26.10;71.50;;;;;;5065608;28;20048;-67
2022/05/22 11:13:45;;;;;;;5.97;2.70;;;25.50;69.50;;;;;;5061653;28;20053;-66
2022/05/22 11:16:13;;;;;;;7.90;2.72;;;26.10;71.20;;;;;;5069129;28;20046;-73
2022/05/22 11:18:39;;;;;;;6.85;2.25;;;25.70;70.00;;;;;;5067620;28;20484;-64
2022/05/22 11:21:14;;;;;;;9.18;2.85;;;25.90;70.30;;;;;;5069310;28;20120;-64
2022/05/22 11:23:48;;;;;;;7.60;2.42;;;25.70;69.10;;;;;;5072048;28;20059;-63
2022/05/22 11:26:43;;;;;;;10.05;2.80;;;26.00;69.20;;;;;;5072912;28;20194;-63
2022/05/22 11:29:18;;;;;;;6.78;2.03;;;26.00;71.10;;;;;;5105868;28;20119;-63
2022/05/22 11:31:54;;;;;;;12.25;2.40;;;25.90;69.40;;;;;;5066343;28;20037;-63
2022/05/22 11:34:28;;;;;;;7.38;2.17;;;25.80;71.00;;;;;;5089210;28;20391;-72
2022/05/22 11:37:18;;;;;;;7.65;2.10;;;25.80;69.30;;;;;;5074393;28;20049;-63
2022/05/22 11:40:08;;;;;;;7.75;1.77;;;25.90;69.70;;;;;;5074283;28;20045;-65
2022/05/22 11:42:38;;;;;;;6.82;2.03;;;25.90;69.90;;;;;;5072459;28;20041;-62
2022/05/22 11:45:19;;;;;;;5.72;2.08;;;26.00;69.70;;;;;;5089080;28;20097;-63
2022/05/22 11:48:00;;;;;;;6.38;1.73;;;26.10;70.20;;;;;;5073279;28;20119;-71
2022/05/22 11:50:41;;;;;;;7.30;2.10;;;26.10;69.90;;;;;;5072639;28;20048;-73
2022/05/22 11:53:26;;;;;;;9.10;2.25;;;26.00;70.10;;;;;;5073149;28;20047;-72
2022/05/22 11:55:58;;;;;;;5.85;1.83;;;26.10;70.40;;;;;;5105162;28;20067;-73
2022/05/22 11:58:27;;;;;;;5.43;1.73;;;25.80;71.30;;;;;;5073898;28;20056;-72
2022/05/22 12:01:03;;;;;;;6.35;1.90;;;26.10;70.10;;;;;;5066844;28;20044;-73
2022/05/22 12:03:37;;;;;;;6.43;2.13;;;25.80;70.30;;;;;;5073294;28;20052;-73
2022/05/22 12:06:38;;;;;;;6.35;1.80;;;25.90;70.40;;;;;;5071810;28;20051;-73
2022/05/22 12:09:33;;;;;;;6.00;1.98;;;26.00;70.70;;;;;;5088605;28;20045;-72
2022/05/22 12:12:14;;;;;;;5.03;1.88;;;26.00;70.50;;;;;;5018054;28;20106;-72
2022/05/22 12:14:47;;;;;;;5.18;1.67;;;26.20;70.60;;;;;;5051176;28;20056;-71
2022/05/22 12:17:30;;;;;;;6.30;2.28;;;25.80;70.30;;;;;;5034962;28;20041;-70
2022/05/22 12:20:10;;;;;;;5.40;2.10;;;26.00;70.50;;;;;;5017730;28;20045;-70
2022/05/22 12:25:25;;;;;;;4.40;1.70;;;26.10;72.20;;;;;;5020731;28;20107;-73
2022/05/22 12:27:51;;;;;;;5.18;1.90;;;26.00;71.70;;;;;;5018369;28;20430;-73
2022/05/22 12:30:39;;;;;;;5.97;1.75;;;26.20;71.80;;;;;;5017964;28;20147;-73
2022/05/22 12:33:10;;;;;;;3.72;1.60;;;26.00;72.40;;;;;;5035026;28;20118;-72
2022/05/22 12:35:40;;;;;;;5.88;2.00;;;26.10;70.80;;;;;;5034522;28;20143;-73
2022/05/22 12:38:07;;;;;;;6.05;1.70;;;26.30;72.60;;;;;;5033832;28;20404;-73
2022/05/22 12:40:38;;;;;;;3.47;1.40;;;26.20;72.30;;;;;;5050838;28;20063;-73
2022/05/22 12:43:04;;;;;;;5.07;1.85;;;25.90;70.60;;;;;;5017501;28;20119;-73
2022/05/22 12:45:30;;;;;;;5.55;2.15;;;26.10;72.30;;;;;;5034104;28;20142;-73
2022/05/22 12:48:14;;;;;;;3.72;1.67;;;26.00;72.00;;;;;;5020109;28;20462;-73
2022/05/22 12:50:47;;;;;;;3.97;1.63;;;25.80;72.50;;;;;;5054673;28;20048;-74
2022/05/22 12:53:26;;;;;;;4.88;1.88;;;25.60;70.70;;;;;;5072289;28;20075;-62
2022/05/22 12:55:52;;;;;;;4.47;1.83;;;25.90;72.70;;;;;;5071424;28;20051;-63
2022/05/22 12:58:39;;;;;;;5.40;1.75;;;25.70;71.50;;;;;;5071336;28;20119;-63
2022/05/22 13:01:27;;;;;;;6.10;2.08;;;25.70;72.60;;;;;;5085410;28;20393;-63
2022/05/22 13:03:55;;;;;;;4.65;1.73;;;25.70;70.80;;;;;;5070939;28;20393;-63
2022/05/22 13:06:22;;;;;;;5.22;2.00;;;25.90;72.20;;;;;;5087534;28;20054;-73
2022/05/22 13:09:03;;;;;;;4.07;1.80;;;25.90;72.10;;;;;;5087957;28;20044;-73
2022/05/22 13:11:51;;;;;;;6.38;1.90;;;26.00;70.70;;;;;;5085900;28;20049;-73
2022/05/22 13:14:40;;;;;;;6.97;1.50;;;25.70;70.90;;;;;;5087898;28;20045;-71
2022/05/22 13:17:08;;;;;;;5.50;1.50;;;26.00;71.00;;;;;;5080231;28;20043;-73
2022/05/22 13:19:34;;;;;;;5.35;1.60;;;25.70;72.10;;;;;;5038044;28;20107;-72
2022/05/22 13:22:12;;;;;;;5.20;1.73;;;25.70;71.90;;;;;;5071186;28;20516;-73
2022/05/22 13:24:38;;;;;;;4.15;1.50;;;25.70;71.90;;;;;;5067719;28;20123;-73
2022/05/22 13:27:20;;;;;;;3.22;1.45;;;25.70;72.00;;;;;;5071004;28;20072;-74
2022/05/22 13:29:54;;;;;;;4.80;1.90;;;25.70;72.20;;;;;;5085110;28;20139;-73
2022/05/22 13:32:38;;;;;;;5.03;1.80;;;25.80;70.70;;;;;;5087470;28;20052;-73